sensor_id;sensor_type;location;lat;lon;timestamp;temperature;humidity
17845;DHT22;9047;53.486;10.218;2024-02-21T00:02:21;9.40;99.90
17845;DHT22;9047;53.486;10.218;2024-02-21T00:04:48;9.40;99.90
17845;DHT22;9047;53.486;10.218;2024-02-21T00:07:15;9.40;99.90
17845;DHT22;9047;53.486;10.218;2024-02-21T00:09:42;9.40;99.90
17845;DHT22;9047;53.486;10.218;2024-02-21T00:12:10;9.40;99.90
17845;DHT22;9047;53.486;10.218;2024-02-21T00:14:39;9.40;99.90
17845;DHT22;9047;53.486;10.218;2024-02-21T00:17:06;9.40;99.90
17845;DHT22;9047;53.486;10.218;2024-02-21T00:19:36;9.40;99.90
17845;DHT22;9047;53.486;10.218;2024-02-21T00:22:03;9.40;99.90
17845;DHT22;9047;53.486;10.218;2024-02-21T00:24:31;9.40;99.90
17845;DHT22;9047;53.486;10.218;2024-02-21T00:26:57;9.40;99.90
17845;DHT22;9047;53.486;10.218;2024-02-21T00:29:24;9.40;99.90
17845;DHT22;9047;53.486;10.218;2024-02-21T00:31:51;9.40;99.90
17845;DHT22;9047;53.486;10.218;2024-02-21T00:34:17;9.40;99.90
17845;DHT22;9047;53.486;10.218;2024-02-21T00:36:46;9.40;99.90
17845;DHT22;9047;53.486;10.218;2024-02-21T00:39:12;9.40;99.90
17845;DHT22;9047;53.486;10.218;2024-02-21T00:41:39;9.30;99.90
17845;DHT22;9047;53.486;10.218;2024-02-21T00:44:06;9.40;99.90
17845;DHT22;9047;53.486;10.218;2024-02-21T00:46:33;9.30;99.90
17845;DHT22;9047;53.486;10.218;2024-02-21T00:49:00;9.30;99.90
17845;DHT22;9047;53.486;10.218;2024-02-21T00:51:26;9.30;99.90
17845;DHT22;9047;53.486;10.218;2024-02-21T00:53:57;9.30;99.90
17845;DHT22;9047;53.486;10.218;2024-02-21T00:56:25;9.30;99.90
17845;DHT22;9047;53.486;10.218;2024-02-21T00:58:52;9.30;99.90
17845;DHT22;9047;53.486;10.218;2024-02-21T01:01:22;9.30;99.90
17845;DHT22;9047;53.486;10.218;2024-02-21T01:03:49;9.30;99.90
17845;DHT22;9047;53.486;10.218;2024-02-21T01:06:16;9.30;99.90
17845;DHT22;9047;53.486;10.218;2024-02-21T01:08:43;9.30;99.90
17845;DHT22;9047;53.486;10.218;2024-02-21T01:11:11;9.30;99.90
17845;DHT22;9047;53.486;10.218;2024-02-21T01:13:38;9.30;99.90
17845;DHT22;9047;53.486;10.218;2024-02-21T01:16:05;9.30;99.90
17845;DHT22;9047;53.486;10.218;2024-02-21T01:18:32;9.30;99.90
17845;DHT22;9047;53.486;10.218;2024-02-21T01:20:59;9.30;99.90
17845;DHT22;9047;53.486;10.218;2024-02-21T01:23:26;9.30;99.90
17845;DHT22;9047;53.486;10.218;2024-02-21T01:25:53;9.30;99.90
17845;DHT22;9047;53.486;10.218;2024-02-21T01:28:22;9.30;99.90
17845;DHT22;9047;53.486;10.218;2024-02-21T01:30:48;9.30;99.90
17845;DHT22;9047;53.486;10.218;2024-02-21T01:33:15;9.30;99.90
17845;DHT22;9047;53.486;10.218;2024-02-21T01:35:42;9.30;99.90
17845;DHT22;9047;53.486;10.218;2024-02-21T01:38:09;9.40;99.90
17845;DHT22;9047;53.486;10.218;2024-02-21T01:40:37;9.30;99.90
17845;DHT22;9047;53.486;10.218;2024-02-21T01:43:03;9.30;99.90
17845;DHT22;9047;53.486;10.218;2024-02-21T01:45:31;9.30;99.90
17845;DHT22;9047;53.486;10.218;2024-02-21T01:47:58;9.30;99.90
17845;DHT22;9047;53.486;10.218;2024-02-21T01:50:25;9.40;99.90
17845;DHT22;9047;53.486;10.218;2024-02-21T01:52:56;9.30;99.90
17845;DHT22;9047;53.486;10.218;2024-02-21T01:55:21;9.40;99.90
17845;DHT22;9047;53.486;10.218;2024-02-21T01:57:48;9.30;99.90
17845;DHT22;9047;53.486;10.218;2024-02-21T02:00:16;9.40;99.90
17845;DHT22;9047;53.486;10.218;2024-02-21T02:02:45;9.40;99.90
17845;DHT22;9047;53.486;10.218;2024-02-21T02:05:12;9.40;99.90
17845;DHT22;9047;53.486;10.218;2024-02-21T02:07:39;9.30;99.90
17845;DHT22;9047;53.486;10.218;2024-02-21T02:10:07;9.30;99.90
17845;DHT22;9047;53.486;10.218;2024-02-21T02:12:35;9.30;99.90
17845;DHT22;9047;53.486;10.218;2024-02-21T02:15:03;9.30;99.90
17845;DHT22;9047;53.486;10.218;2024-02-21T02:17:30;9.20;99.90
17845;DHT22;9047;53.486;10.218;2024-02-21T02:19:59;9.20;99.90
17845;DHT22;9047;53.486;10.218;2024-02-21T02:22:28;9.20;99.90
17845;DHT22;9047;53.486;10.218;2024-02-21T02:24:57;9.20;99.90
17845;DHT22;9047;53.486;10.218;2024-02-21T02:27:23;9.20;99.90
17845;DHT22;9047;53.486;10.218;2024-02-21T02:29:50;9.20;99.90
17845;DHT22;9047;53.486;10.218;2024-02-21T02:32:17;9.10;99.90
17845;DHT22;9047;53.486;10.218;2024-02-21T02:34:45;9.20;99.90
17845;DHT22;9047;53.486;10.218;2024-02-21T02:37:12;9.10;99.90
17845;DHT22;9047;53.486;10.218;2024-02-21T02:39:39;9.10;99.90
17845;DHT22;9047;53.486;10.218;2024-02-21T02:42:08;9.10;99.90
17845;DHT22;9047;53.486;10.218;2024-02-21T02:44:35;9.10;99.90
17845;DHT22;9047;53.486;10.218;2024-02-21T02:47:03;9.10;99.90
17845;DHT22;9047;53.486;10.218;2024-02-21T02:49:30;9.10;99.90
17845;DHT22;9047;53.486;10.218;2024-02-21T02:51:57;9.10;99.90
17845;DHT22;9047;53.486;10.218;2024-02-21T02:54:23;9.10;99.90
17845;DHT22;9047;53.486;10.218;2024-02-21T02:56:50;9.10;99.90
17845;DHT22;9047;53.486;10.218;2024-02-21T02:59:18;9.10;99.90
17845;DHT22;9047;53.486;10.218;2024-02-21T03:01:45;9.10;99.90
17845;DHT22;9047;53.486;10.218;2024-02-21T03:04:14;9.10;99.90
17845;DHT22;9047;53.486;10.218;2024-02-21T03:06:41;9.20;99.90
17845;DHT22;9047;53.486;10.218;2024-02-21T03:09:07;9.20;99.90
17845;DHT22;9047;53.486;10.218;2024-02-21T03:11:35;9.10;99.90
17845;DHT22;9047;53.486;10.218;2024-02-21T03:14:03;9.20;99.90
17845;DHT22;9047;53.486;10.218;2024-02-21T03:16:31;9.20;99.90
17845;DHT22;9047;53.486;10.218;2024-02-21T03:18:58;9.20;99.90
17845;DHT22;9047;53.486;10.218;2024-02-21T03:21:25;9.20;99.90
17845;DHT22;9047;53.486;10.218;2024-02-21T03:23:52;9.30;99.90
17845;DHT22;9047;53.486;10.218;2024-02-21T03:26:19;9.30;99.90
17845;DHT22;9047;53.486;10.218;2024-02-21T03:28:46;9.30;99.90
17845;DHT22;9047;53.486;10.218;2024-02-21T03:31:14;9.30;99.90
17845;DHT22;9047;53.486;10.218;2024-02-21T03:33:42;9.30;99.90
17845;DHT22;9047;53.486;10.218;2024-02-21T03:36:13;9.30;99.90
17845;DHT22;9047;53.486;10.218;2024-02-21T03:38:40;9.30;99.90
17845;DHT22;9047;53.486;10.218;2024-02-21T03:41:07;9.30;99.90
17845;DHT22;9047;53.486;10.218;2024-02-21T03:43:33;9.30;99.90
17845;DHT22;9047;53.486;10.218;2024-02-21T03:46:00;9.40;99.90
17845;DHT22;9047;53.486;10.218;2024-02-21T03:48:27;9.40;99.90
17845;DHT22;9047;53.486;10.218;2024-02-21T03:50:55;9.40;99.90
17845;DHT22;9047;53.486;10.218;2024-02-21T03:53:22;9.40;99.90
17845;DHT22;9047;53.486;10.218;2024-02-21T03:55:49;9.50;99.90
17845;DHT22;9047;53.486;10.218;2024-02-21T03:58:16;9.50;99.90
17845;DHT22;9047;53.486;10.218;2024-02-21T04:00:43;9.50;99.90
17845;DHT22;9047;53.486;10.218;2024-02-21T04:03:10;9.50;99.90
17845;DHT22;9047;53.486;10.218;2024-02-21T04:05:37;9.50;99.90
17845;DHT22;9047;53.486;10.218;2024-02-21T04:08:06;9.60;99.90
17845;DHT22;9047;53.486;10.218;2024-02-21T04:10:33;9.60;99.90
17845;DHT22;9047;53.486;10.218;2024-02-21T04:13:00;9.60;99.90
17845;DHT22;9047;53.486;10.218;2024-02-21T04:15:27;9.60;99.90
17845;DHT22;9047;53.486;10.218;2024-02-21T04:17:53;9.50;99.90
17845;DHT22;9047;53.486;10.218;2024-02-21T04:20:20;9.60;99.90
17845;DHT22;9047;53.486;10.218;2024-02-21T04:22:47;9.60;99.90
17845;DHT22;9047;53.486;10.218;2024-02-21T04:25:15;9.50;99.90
17845;DHT22;9047;53.486;10.218;2024-02-21T04:27:42;9.50;99.90
17845;DHT22;9047;53.486;10.218;2024-02-21T04:30:09;9.50;99.90
17845;DHT22;9047;53.486;10.218;2024-02-21T04:32:36;9.40;99.90
17845;DHT22;9047;53.486;10.218;2024-02-21T04:35:03;9.40;99.90
17845;DHT22;9047;53.486;10.218;2024-02-21T04:37:30;9.40;99.90
17845;DHT22;9047;53.486;10.218;2024-02-21T04:39:57;9.30;99.90
17845;DHT22;9047;53.486;10.218;2024-02-21T04:42:25;9.30;99.90
17845;DHT22;9047;53.486;10.218;2024-02-21T04:44:52;9.30;99.90
17845;DHT22;9047;53.486;10.218;2024-02-21T04:47:19;9.30;99.90
17845;DHT22;9047;53.486;10.218;2024-02-21T04:49:46;9.30;99.90
17845;DHT22;9047;53.486;10.218;2024-02-21T04:52:14;9.30;99.90
17845;DHT22;9047;53.486;10.218;2024-02-21T04:54:41;9.20;99.90
17845;DHT22;9047;53.486;10.218;2024-02-21T04:57:08;9.20;99.90
17845;DHT22;9047;53.486;10.218;2024-02-21T04:59:37;9.20;99.90
17845;DHT22;9047;53.486;10.218;2024-02-21T05:02:05;9.20;99.90
17845;DHT22;9047;53.486;10.218;2024-02-21T05:04:31;9.20;99.90
17845;DHT22;9047;53.486;10.218;2024-02-21T05:07:00;9.10;99.90
17845;DHT22;9047;53.486;10.218;2024-02-21T05:09:27;9.10;99.90
17845;DHT22;9047;53.486;10.218;2024-02-21T05:11:54;9.10;99.90
17845;DHT22;9047;53.486;10.218;2024-02-21T05:14:20;9.10;99.90
17845;DHT22;9047;53.486;10.218;2024-02-21T05:16:48;9.00;99.90
17845;DHT22;9047;53.486;10.218;2024-02-21T05:19:15;9.00;99.90
17845;DHT22;9047;53.486;10.218;2024-02-21T05:21:42;9.00;99.90
17845;DHT22;9047;53.486;10.218;2024-02-21T05:24:09;8.90;99.90
17845;DHT22;9047;53.486;10.218;2024-02-21T05:26:35;9.00;99.90
17845;DHT22;9047;53.486;10.218;2024-02-21T05:29:03;9.00;99.90
17845;DHT22;9047;53.486;10.218;2024-02-21T05:31:54;9.00;99.90
17845;DHT22;9047;53.486;10.218;2024-02-21T05:34:22;8.90;99.90
17845;DHT22;9047;53.486;10.218;2024-02-21T05:36:49;9.00;99.90
17845;DHT22;9047;53.486;10.218;2024-02-21T05:39:18;8.90;99.90
17845;DHT22;9047;53.486;10.218;2024-02-21T05:41:45;8.90;99.90
17845;DHT22;9047;53.486;10.218;2024-02-21T05:44:12;8.90;99.90
17845;DHT22;9047;53.486;10.218;2024-02-21T05:46:40;8.90;99.90
17845;DHT22;9047;53.486;10.218;2024-02-21T05:49:07;8.90;99.90
17845;DHT22;9047;53.486;10.218;2024-02-21T05:51:35;8.90;99.90
17845;DHT22;9047;53.486;10.218;2024-02-21T05:54:04;8.90;99.90
17845;DHT22;9047;53.486;10.218;2024-02-21T05:56:31;8.90;99.90
17845;DHT22;9047;53.486;10.218;2024-02-21T05:58:58;8.90;99.90
17845;DHT22;9047;53.486;10.218;2024-02-21T06:01:25;8.90;99.90
17845;DHT22;9047;53.486;10.218;2024-02-21T06:03:52;8.90;99.90
17845;DHT22;9047;53.486;10.218;2024-02-21T06:06:18;8.90;99.90
17845;DHT22;9047;53.486;10.218;2024-02-21T06:08:49;8.90;99.90
17845;DHT22;9047;53.486;10.218;2024-02-21T06:11:15;8.90;99.90
17845;DHT22;9047;53.486;10.218;2024-02-21T06:13:42;8.90;99.90
17845;DHT22;9047;53.486;10.218;2024-02-21T06:16:09;8.90;99.90
17845;DHT22;9047;53.486;10.218;2024-02-21T06:18:36;8.90;99.90
17845;DHT22;9047;53.486;10.218;2024-02-21T06:21:03;8.90;99.90
17845;DHT22;9047;53.486;10.218;2024-02-21T06:23:30;8.90;99.90
17845;DHT22;9047;53.486;10.218;2024-02-21T06:25:59;8.90;99.90
17845;DHT22;9047;53.486;10.218;2024-02-21T06:28:25;8.90;99.90
17845;DHT22;9047;53.486;10.218;2024-02-21T06:30:52;8.90;99.90
17845;DHT22;9047;53.486;10.218;2024-02-21T06:33:19;8.90;99.90
17845;DHT22;9047;53.486;10.218;2024-02-21T06:35:50;9.00;99.90
17845;DHT22;9047;53.486;10.218;2024-02-21T06:38:18;9.00;99.90
17845;DHT22;9047;53.486;10.218;2024-02-21T06:40:45;9.00;99.90
17845;DHT22;9047;53.486;10.218;2024-02-21T06:43:17;9.00;99.90
17845;DHT22;9047;53.486;10.218;2024-02-21T06:45:44;9.00;99.90
17845;DHT22;9047;53.486;10.218;2024-02-21T06:48:13;8.90;99.90
17845;DHT22;9047;53.486;10.218;2024-02-21T06:50:40;9.00;99.90
17845;DHT22;9047;53.486;10.218;2024-02-21T06:53:07;8.90;99.90
17845;DHT22;9047;53.486;10.218;2024-02-21T06:55:34;9.00;99.90
17845;DHT22;9047;53.486;10.218;2024-02-21T06:58:01;9.00;99.90
17845;DHT22;9047;53.486;10.218;2024-02-21T07:00:29;9.00;99.90
17845;DHT22;9047;53.486;10.218;2024-02-21T07:02:56;9.00;99.90
17845;DHT22;9047;53.486;10.218;2024-02-21T07:05:23;9.00;99.90
17845;DHT22;9047;53.486;10.218;2024-02-21T07:07:50;9.00;99.90
17845;DHT22;9047;53.486;10.218;2024-02-21T07:10:17;9.00;99.90
17845;DHT22;9047;53.486;10.218;2024-02-21T07:12:44;9.00;99.90
17845;DHT22;9047;53.486;10.218;2024-02-21T07:15:11;9.00;99.90
17845;DHT22;9047;53.486;10.218;2024-02-21T07:17:39;9.00;99.90
17845;DHT22;9047;53.486;10.218;2024-02-21T07:20:07;9.00;99.90
17845;DHT22;9047;53.486;10.218;2024-02-21T07:22:34;9.00;99.90
17845;DHT22;9047;53.486;10.218;2024-02-21T07:25:00;9.00;99.90
17845;DHT22;9047;53.486;10.218;2024-02-21T07:27:27;9.10;99.90
17845;DHT22;9047;53.486;10.218;2024-02-21T07:29:56;9.10;99.90
17845;DHT22;9047;53.486;10.218;2024-02-21T07:32:23;9.10;99.90
17845;DHT22;9047;53.486;10.218;2024-02-21T07:34:51;9.10;99.90
17845;DHT22;9047;53.486;10.218;2024-02-21T07:37:18;9.20;99.90
17845;DHT22;9047;53.486;10.218;2024-02-21T07:39:45;9.20;99.90
17845;DHT22;9047;53.486;10.218;2024-02-21T07:42:12;9.20;99.90
17845;DHT22;9047;53.486;10.218;2024-02-21T07:44:39;9.20;99.90
17845;DHT22;9047;53.486;10.218;2024-02-21T07:47:06;9.20;99.90
17845;DHT22;9047;53.486;10.218;2024-02-21T07:49:40;9.20;99.90
17845;DHT22;9047;53.486;10.218;2024-02-21T07:52:08;9.30;99.90
17845;DHT22;9047;53.486;10.218;2024-02-21T07:54:35;9.30;99.90
17845;DHT22;9047;53.486;10.218;2024-02-21T07:57:02;9.30;99.90
17845;DHT22;9047;53.486;10.218;2024-02-21T07:59:29;9.30;99.90
17845;DHT22;9047;53.486;10.218;2024-02-21T08:01:56;9.30;99.90
17845;DHT22;9047;53.486;10.218;2024-02-21T08:04:24;9.30;99.90
17845;DHT22;9047;53.486;10.218;2024-02-21T08:06:52;9.30;99.90
17845;DHT22;9047;53.486;10.218;2024-02-21T08:09:21;9.30;99.90
17845;DHT22;9047;53.486;10.218;2024-02-21T08:11:47;9.30;99.90
17845;DHT22;9047;53.486;10.218;2024-02-21T08:14:14;9.30;99.90
17845;DHT22;9047;53.486;10.218;2024-02-21T08:16:41;9.40;99.90
17845;DHT22;9047;53.486;10.218;2024-02-21T08:19:08;9.40;99.90
17845;DHT22;9047;53.486;10.218;2024-02-21T08:21:35;9.30;99.90
17845;DHT22;9047;53.486;10.218;2024-02-21T08:24:03;9.30;99.90
17845;DHT22;9047;53.486;10.218;2024-02-21T08:26:31;9.30;99.90
17845;DHT22;9047;53.486;10.218;2024-02-21T08:28:58;9.40;99.90
17845;DHT22;9047;53.486;10.218;2024-02-21T08:31:26;9.40;99.90
17845;DHT22;9047;53.486;10.218;2024-02-21T08:33:56;9.40;99.90
17845;DHT22;9047;53.486;10.218;2024-02-21T08:36:28;9.50;99.90
17845;DHT22;9047;53.486;10.218;2024-02-21T08:38:55;9.50;99.90
17845;DHT22;9047;53.486;10.218;2024-02-21T08:41:21;9.50;99.90
17845;DHT22;9047;53.486;10.218;2024-02-21T08:43:51;9.50;99.90
17845;DHT22;9047;53.486;10.218;2024-02-21T08:46:18;9.50;99.90
17845;DHT22;9047;53.486;10.218;2024-02-21T08:48:45;9.50;99.90
17845;DHT22;9047;53.486;10.218;2024-02-21T08:51:12;9.40;99.90
17845;DHT22;9047;53.486;10.218;2024-02-21T08:53:39;9.40;99.90
17845;DHT22;9047;53.486;10.218;2024-02-21T08:56:06;9.30;99.90
17845;DHT22;9047;53.486;10.218;2024-02-21T08:58:34;9.30;99.90
17845;DHT22;9047;53.486;10.218;2024-02-21T09:01:04;9.30;99.90
17845;DHT22;9047;53.486;10.218;2024-02-21T09:03:31;9.30;99.90
17845;DHT22;9047;53.486;10.218;2024-02-21T09:05:57;9.30;99.90
17845;DHT22;9047;53.486;10.218;2024-02-21T09:08:24;9.20;99.90
17845;DHT22;9047;53.486;10.218;2024-02-21T09:10:50;9.20;99.90
17845;DHT22;9047;53.486;10.218;2024-02-21T09:13:17;9.10;99.90
17845;DHT22;9047;53.486;10.218;2024-02-21T09:15:44;9.00;99.90
17845;DHT22;9047;53.486;10.218;2024-02-21T09:18:13;9.00;99.90
17845;DHT22;9047;53.486;10.218;2024-02-21T09:20:39;9.00;99.90
17845;DHT22;9047;53.486;10.218;2024-02-21T09:23:06;9.00;99.90
17845;DHT22;9047;53.486;10.218;2024-02-21T09:25:33;9.00;99.90
17845;DHT22;9047;53.486;10.218;2024-02-21T09:28:01;9.00;99.90
17845;DHT22;9047;53.486;10.218;2024-02-21T09:30:29;9.00;99.90
17845;DHT22;9047;53.486;10.218;2024-02-21T09:32:57;9.00;99.90
17845;DHT22;9047;53.486;10.218;2024-02-21T09:35:26;9.00;99.90
17845;DHT22;9047;53.486;10.218;2024-02-21T09:37:53;9.00;99.90
17845;DHT22;9047;53.486;10.218;2024-02-21T09:40:20;9.10;99.90
17845;DHT22;9047;53.486;10.218;2024-02-21T09:42:47;9.10;99.90
17845;DHT22;9047;53.486;10.218;2024-02-21T09:45:20;9.10;99.90
17845;DHT22;9047;53.486;10.218;2024-02-21T09:48:12;9.20;99.90
17845;DHT22;9047;53.486;10.218;2024-02-21T09:50:43;9.20;99.90
17845;DHT22;9047;53.486;10.218;2024-02-21T09:53:12;9.20;99.90
17845;DHT22;9047;53.486;10.218;2024-02-21T09:55:39;9.10;99.90
17845;DHT22;9047;53.486;10.218;2024-02-21T09:58:07;9.10;99.90
17845;DHT22;9047;53.486;10.218;2024-02-21T10:00:35;9.10;99.90
17845;DHT22;9047;53.486;10.218;2024-02-21T10:03:03;9.10;99.90
17845;DHT22;9047;53.486;10.218;2024-02-21T10:05:35;9.10;99.90
17845;DHT22;9047;53.486;10.218;2024-02-21T10:08:04;9.10;99.90
17845;DHT22;9047;53.486;10.218;2024-02-21T10:10:40;9.10;99.90
17845;DHT22;9047;53.486;10.218;2024-02-21T10:13:09;9.10;99.90
17845;DHT22;9047;53.486;10.218;2024-02-21T10:15:36;9.20;99.90
17845;DHT22;9047;53.486;10.218;2024-02-21T10:18:03;9.20;99.90
17845;DHT22;9047;53.486;10.218;2024-02-21T10:20:32;9.20;99.90
17845;DHT22;9047;53.486;10.218;2024-02-21T10:23:04;9.20;99.90
17845;DHT22;9047;53.486;10.218;2024-02-21T10:25:34;9.30;99.90
17845;DHT22;9047;53.486;10.218;2024-02-21T10:28:02;9.30;99.90
17845;DHT22;9047;53.486;10.218;2024-02-21T10:30:29;9.40;99.90
17845;DHT22;9047;53.486;10.218;2024-02-21T10:32:56;9.40;99.90
17845;DHT22;9047;53.486;10.218;2024-02-21T10:35:27;9.40;99.90
17845;DHT22;9047;53.486;10.218;2024-02-21T10:37:55;9.40;99.90
17845;DHT22;9047;53.486;10.218;2024-02-21T10:40:25;9.50;99.90
17845;DHT22;9047;53.486;10.218;2024-02-21T10:42:56;9.50;99.90
17845;DHT22;9047;53.486;10.218;2024-02-21T10:45:29;9.50;99.90
17845;DHT22;9047;53.486;10.218;2024-02-21T10:47:57;9.50;99.90
17845;DHT22;9047;53.486;10.218;2024-02-21T10:50:30;9.50;99.90
17845;DHT22;9047;53.486;10.218;2024-02-21T10:53:07;9.60;99.90
17845;DHT22;9047;53.486;10.218;2024-02-21T10:55:39;9.60;99.90
17845;DHT22;9047;53.486;10.218;2024-02-21T10:58:08;9.60;99.90
17845;DHT22;9047;53.486;10.218;2024-02-21T11:00:37;9.60;99.90
17845;DHT22;9047;53.486;10.218;2024-02-21T11:03:04;9.60;99.90
17845;DHT22;9047;53.486;10.218;2024-02-21T11:05:32;9.60;99.90
17845;DHT22;9047;53.486;10.218;2024-02-21T11:08:00;9.60;99.90
17845;DHT22;9047;53.486;10.218;2024-02-21T11:10:27;9.60;99.90
17845;DHT22;9047;53.486;10.218;2024-02-21T11:13:05;9.60;99.90
17845;DHT22;9047;53.486;10.218;2024-02-21T11:15:33;9.60;99.90
17845;DHT22;9047;53.486;10.218;2024-02-21T11:18:00;9.60;99.90
17845;DHT22;9047;53.486;10.218;2024-02-21T11:20:33;9.60;99.90
17845;DHT22;9047;53.486;10.218;2024-02-21T11:23:00;9.60;99.90
17845;DHT22;9047;53.486;10.218;2024-02-21T11:25:28;9.60;99.90
17845;DHT22;9047;53.486;10.218;2024-02-21T11:28:01;9.60;99.90
17845;DHT22;9047;53.486;10.218;2024-02-21T11:30:30;9.60;99.90
17845;DHT22;9047;53.486;10.218;2024-02-21T11:33:01;9.60;99.90
17845;DHT22;9047;53.486;10.218;2024-02-21T11:35:44;9.50;99.90
17845;DHT22;9047;53.486;10.218;2024-02-21T11:38:12;9.60;99.90
17845;DHT22;9047;53.486;10.218;2024-02-21T11:40:43;9.60;99.90
17845;DHT22;9047;53.486;10.218;2024-02-21T11:43:13;9.60;99.90
17845;DHT22;9047;53.486;10.218;2024-02-21T11:45:43;9.60;99.90
17845;DHT22;9047;53.486;10.218;2024-02-21T11:48:10;9.60;99.90
17845;DHT22;9047;53.486;10.218;2024-02-21T11:50:39;9.60;99.90
17845;DHT22;9047;53.486;10.218;2024-02-21T11:53:06;9.60;99.90
17845;DHT22;9047;53.486;10.218;2024-02-21T11:55:34;9.50;99.90
17845;DHT22;9047;53.486;10.218;2024-02-21T11:58:01;9.50;99.90
17845;DHT22;9047;53.486;10.218;2024-02-21T12:00:30;9.50;99.90
17845;DHT22;9047;53.486;10.218;2024-02-21T12:02:57;9.50;99.90
17845;DHT22;9047;53.486;10.218;2024-02-21T12:05:27;9.50;99.90
17845;DHT22;9047;53.486;10.218;2024-02-21T12:07:55;9.60;99.90
17845;DHT22;9047;53.486;10.218;2024-02-21T12:10:23;9.60;99.90
17845;DHT22;9047;53.486;10.218;2024-02-21T12:12:52;9.60;99.90
17845;DHT22;9047;53.486;10.218;2024-02-21T12:15:23;9.60;99.90
17845;DHT22;9047;53.486;10.218;2024-02-21T12:17:51;9.60;99.90
17845;DHT22;9047;53.486;10.218;2024-02-21T12:20:18;9.60;99.90
17845;DHT22;9047;53.486;10.218;2024-02-21T12:22:49;9.60;99.90
17845;DHT22;9047;53.486;10.218;2024-02-21T12:25:17;9.50;99.90
17845;DHT22;9047;53.486;10.218;2024-02-21T12:27:44;9.50;99.90
17845;DHT22;9047;53.486;10.218;2024-02-21T12:30:12;9.50;99.90
17845;DHT22;9047;53.486;10.218;2024-02-21T12:32:38;9.40;99.90
17845;DHT22;9047;53.486;10.218;2024-02-21T12:35:08;9.40;99.90
17845;DHT22;9047;53.486;10.218;2024-02-21T12:37:35;9.30;99.90
17845;DHT22;9047;53.486;10.218;2024-02-21T12:40:04;9.30;99.90
17845;DHT22;9047;53.486;10.218;2024-02-21T12:42:32;9.30;99.90
17845;DHT22;9047;53.486;10.218;2024-02-21T12:44:59;9.30;99.90
17845;DHT22;9047;53.486;10.218;2024-02-21T12:47:25;9.30;99.90
17845;DHT22;9047;53.486;10.218;2024-02-21T12:49:52;9.30;99.90
17845;DHT22;9047;53.486;10.218;2024-02-21T12:52:21;9.30;99.90
17845;DHT22;9047;53.486;10.218;2024-02-21T12:54:48;9.30;99.90
17845;DHT22;9047;53.486;10.218;2024-02-21T12:57:16;9.30;99.90
17845;DHT22;9047;53.486;10.218;2024-02-21T12:59:43;9.40;99.90
17845;DHT22;9047;53.486;10.218;2024-02-21T13:02:10;9.40;99.90
17845;DHT22;9047;53.486;10.218;2024-02-21T13:04:37;9.40;99.90
17845;DHT22;9047;53.486;10.218;2024-02-21T13:07:06;9.50;99.90
17845;DHT22;9047;53.486;10.218;2024-02-21T13:09:35;9.50;99.90
17845;DHT22;9047;53.486;10.218;2024-02-21T13:12:02;9.60;99.90
17845;DHT22;9047;53.486;10.218;2024-02-21T13:14:29;9.60;99.90
17845;DHT22;9047;53.486;10.218;2024-02-21T13:16:58;9.70;99.90
17845;DHT22;9047;53.486;10.218;2024-02-21T13:19:26;9.80;99.90
17845;DHT22;9047;53.486;10.218;2024-02-21T13:21:53;9.80;99.90
17845;DHT22;9047;53.486;10.218;2024-02-21T13:24:21;9.90;99.90
17845;DHT22;9047;53.486;10.218;2024-02-21T13:26:50;10.00;99.90
17845;DHT22;9047;53.486;10.218;2024-02-21T13:29:16;10.00;99.90
17845;DHT22;9047;53.486;10.218;2024-02-21T13:31:44;10.10;99.90
17845;DHT22;9047;53.486;10.218;2024-02-21T13:34:11;10.10;99.90
17845;DHT22;9047;53.486;10.218;2024-02-21T13:36:38;10.10;99.90
17845;DHT22;9047;53.486;10.218;2024-02-21T13:39:06;10.10;99.90
17845;DHT22;9047;53.486;10.218;2024-02-21T13:41:38;10.10;99.90
17845;DHT22;9047;53.486;10.218;2024-02-21T13:44:06;10.10;99.90
17845;DHT22;9047;53.486;10.218;2024-02-21T13:46:34;10.10;99.90
17845;DHT22;9047;53.486;10.218;2024-02-21T13:49:03;10.10;99.90
17845;DHT22;9047;53.486;10.218;2024-02-21T13:51:32;10.20;99.90
17845;DHT22;9047;53.486;10.218;2024-02-21T13:54:02;10.20;99.90
17845;DHT22;9047;53.486;10.218;2024-02-21T13:56:30;10.20;99.90
17845;DHT22;9047;53.486;10.218;2024-02-21T13:58:58;10.20;99.90
17845;DHT22;9047;53.486;10.218;2024-02-21T14:01:26;10.20;99.90
17845;DHT22;9047;53.486;10.218;2024-02-21T14:03:54;10.30;99.90
17845;DHT22;9047;53.486;10.218;2024-02-21T14:06:21;10.30;99.90
17845;DHT22;9047;53.486;10.218;2024-02-21T14:08:48;10.30;99.90
17845;DHT22;9047;53.486;10.218;2024-02-21T14:11:18;10.40;99.90
17845;DHT22;9047;53.486;10.218;2024-02-21T14:13:46;10.40;99.90
17845;DHT22;9047;53.486;10.218;2024-02-21T14:16:14;10.40;99.90
17845;DHT22;9047;53.486;10.218;2024-02-21T14:18:43;10.50;99.90
17845;DHT22;9047;53.486;10.218;2024-02-21T14:21:10;10.60;99.90
17845;DHT22;9047;53.486;10.218;2024-02-21T14:23:38;10.60;99.90
17845;DHT22;9047;53.486;10.218;2024-02-21T14:26:05;10.70;99.90
17845;DHT22;9047;53.486;10.218;2024-02-21T14:28:32;10.70;99.90
17845;DHT22;9047;53.486;10.218;2024-02-21T14:31:00;10.70;99.90
17845;DHT22;9047;53.486;10.218;2024-02-21T14:33:27;10.80;99.90
17845;DHT22;9047;53.486;10.218;2024-02-21T14:35:56;10.80;99.90
17845;DHT22;9047;53.486;10.218;2024-02-21T14:38:23;10.80;99.90
17845;DHT22;9047;53.486;10.218;2024-02-21T14:40:50;10.80;99.90
17845;DHT22;9047;53.486;10.218;2024-02-21T14:43:16;10.80;99.90
17845;DHT22;9047;53.486;10.218;2024-02-21T14:45:45;10.80;99.90
17845;DHT22;9047;53.486;10.218;2024-02-21T14:48:13;10.80;99.90
17845;DHT22;9047;53.486;10.218;2024-02-21T14:50:40;10.70;99.90
17845;DHT22;9047;53.486;10.218;2024-02-21T14:53:09;10.80;99.90
17845;DHT22;9047;53.486;10.218;2024-02-21T14:55:36;10.70;99.90
17845;DHT22;9047;53.486;10.218;2024-02-21T14:58:05;10.70;99.90
17845;DHT22;9047;53.486;10.218;2024-02-21T15:00:32;10.70;99.90
17845;DHT22;9047;53.486;10.218;2024-02-21T15:02:59;10.70;99.90
17845;DHT22;9047;53.486;10.218;2024-02-21T15:05:28;10.60;99.90
17845;DHT22;9047;53.486;10.218;2024-02-21T15:07:56;10.60;99.90
17845;DHT22;9047;53.486;10.218;2024-02-21T15:10:24;10.60;99.90
17845;DHT22;9047;53.486;10.218;2024-02-21T15:12:52;10.50;99.90
17845;DHT22;9047;53.486;10.218;2024-02-21T15:15:18;10.50;99.90
17845;DHT22;9047;53.486;10.218;2024-02-21T15:17:45;10.40;99.90
17845;DHT22;9047;53.486;10.218;2024-02-21T15:20:13;10.50;99.90
17845;DHT22;9047;53.486;10.218;2024-02-21T15:22:40;10.40;99.90
17845;DHT22;9047;53.486;10.218;2024-02-21T15:25:08;10.40;99.90
17845;DHT22;9047;53.486;10.218;2024-02-21T15:27:42;10.40;99.90
17845;DHT22;9047;53.486;10.218;2024-02-21T15:30:10;10.30;99.90
17845;DHT22;9047;53.486;10.218;2024-02-21T15:32:37;10.30;99.90
17845;DHT22;9047;53.486;10.218;2024-02-21T15:35:05;10.20;99.90
17845;DHT22;9047;53.486;10.218;2024-02-21T15:37:33;10.20;99.90
17845;DHT22;9047;53.486;10.218;2024-02-21T15:40:00;10.10;99.90
17845;DHT22;9047;53.486;10.218;2024-02-21T15:42:28;10.10;99.90
17845;DHT22;9047;53.486;10.218;2024-02-21T15:44:58;10.10;99.90
17845;DHT22;9047;53.486;10.218;2024-02-21T15:47:26;10.00;99.90
17845;DHT22;9047;53.486;10.218;2024-02-21T15:49:53;10.00;99.90